Time;durP1;ratioP1;P1;durP2;ratioP2;P2;SDS_P1;SDS_P2;PMS_P1;PMS_P2;Temp;Humidity;BMP_temperature;BMP_pressure;BME280_temperature;BME280_humidity;BME280_pressure;Samples;Min_cycle;Max_cycle;Signal;HPM_P1;HPM_P2
2021/10/07 00:01:50;;;;;;;33.57;23.83;;;13.20;99.90;;;;;;4974895;28;20256;-72
2021/10/07 00:04:16;;;;;;;35.77;25.73;;;13.20;99.90;;;;;;4974401;28;20549;-72
2021/10/07 00:06:41;;;;;;;33.10;23.20;;;13.20;99.90;;;;;;4974720;28;20204;-72
2021/10/07 00:09:07;;;;;;;32.43;22.20;;;13.20;99.90;;;;;;4974472;28;20176;-72
2021/10/07 00:11:34;;;;;;;30.30;21.87;;;13.20;99.90;;;;;;4972968;28;20220;-72
2021/10/07 00:13:59;;;;;;;31.07;21.87;;;13.20;99.90;;;;;;4974425;28;20408;-72
2021/10/07 00:16:25;;;;;;;28.13;20.03;;;13.20;99.90;;;;;;4974458;28;20456;-72
2021/10/07 00:18:52;;;;;;;29.37;20.80;;;13.20;99.90;;;;;;4974305;28;20792;-73
2021/10/07 00:21:18;;;;;;;24.90;19.40;;;13.20;99.90;;;;;;4967860;28;20292;-73
2021/10/07 00:24:07;;;;;;;31.95;23.13;;;13.20;99.90;;;;;;4961643;28;20412;-73
2021/10/07 00:26:45;;;;;;;32.83;23.17;;;13.20;99.90;;;;;;4955380;28;20276;-73
2021/10/07 00:31:56;;;;;;;30.80;22.57;;;13.30;99.90;;;;;;4955020;28;20874;-73
2021/10/07 00:39:13;;;;;;;33.60;25.13;;;13.20;99.90;;;;;;4973878;28;20176;-73
2021/10/07 00:41:43;;;;;;;33.57;24.73;;;13.10;99.90;;;;;;4974105;28;20511;-73
2021/10/07 00:44:10;;;;;;;39.00;25.70;;;13.10;99.90;;;;;;4972988;28;20643;-73
2021/10/07 00:46:50;;;;;;;35.07;25.20;;;13.20;99.90;;;;;;4973739;28;20499;-73
2021/10/07 00:49:16;;;;;;;36.13;25.40;;;13.20;99.90;;;;;;4973825;28;20801;-73
2021/10/07 00:51:41;;;;;;;37.50;25.13;;;13.20;99.90;;;;;;4973859;28;20413;-73
2021/10/07 00:54:07;;;;;;;37.37;27.20;;;13.10;99.90;;;;;;4974108;28;20420;-73
2021/10/07 00:56:33;;;;;;;33.63;24.90;;;13.10;99.90;;;;;;4973669;28;20260;-73
2021/10/07 00:58:59;;;;;;;39.90;27.00;;;13.10;99.90;;;;;;4977014;28;20529;-73
2021/10/07 01:01:24;;;;;;;37.97;26.47;;;13.00;99.90;;;;;;4976198;28;20412;-73
2021/10/07 01:03:50;;;;;;;39.90;26.90;;;13.00;99.90;;;;;;4977468;28;20177;-73
2021/10/07 01:06:15;;;;;;;38.30;25.80;;;13.00;99.90;;;;;;4977176;28;20204;-73
2021/10/07 01:08:41;;;;;;;41.23;25.90;;;13.00;99.90;;;;;;4977290;28;20192;-73
2021/10/07 01:11:07;;;;;;;37.50;25.20;;;13.10;99.90;;;;;;4977034;28;20597;-73
2021/10/07 01:13:38;;;;;;;38.23;24.10;;;13.10;99.90;;;;;;4976753;28;20228;-73
2021/10/07 01:16:04;;;;;;;38.87;25.97;;;13.20;99.90;;;;;;4976864;28;20522;-73
2021/10/07 01:18:29;;;;;;;41.67;26.30;;;13.10;99.90;;;;;;4977210;28;20393;-73
2021/10/07 01:20:55;;;;;;;38.87;25.50;;;13.10;99.90;;;;;;4977185;28;20439;-73
2021/10/07 01:23:21;;;;;;;40.87;26.17;;;13.20;99.90;;;;;;4977000;28;20184;-73
2021/10/07 01:25:46;;;;;;;38.33;26.20;;;13.20;99.90;;;;;;4976576;28;20207;-73
2021/10/07 01:28:12;;;;;;;35.97;24.17;;;13.20;99.90;;;;;;4976866;28;20823;-73
2021/10/07 01:30:37;;;;;;;37.47;24.60;;;13.30;99.90;;;;;;4976778;28;20589;-73
2021/10/07 01:33:03;;;;;;;38.90;25.40;;;13.30;99.90;;;;;;4977247;28;20165;-73
2021/10/07 01:35:29;;;;;;;40.63;24.37;;;13.30;99.90;;;;;;4976300;28;20208;-73
2021/10/07 01:37:55;;;;;;;39.03;26.47;;;13.30;99.90;;;;;;4976878;28;20417;-73
2021/10/07 01:40:21;;;;;;;40.10;23.93;;;13.40;99.90;;;;;;4982418;28;20197;-73
2021/10/07 01:42:46;;;;;;;35.80;25.43;;;13.30;99.90;;;;;;4985609;28;20405;-73
2021/10/07 01:45:12;;;;;;;40.77;25.70;;;13.30;99.90;;;;;;4979029;28;20463;-73
2021/10/07 01:47:39;;;;;;;42.87;27.60;;;13.30;99.90;;;;;;4976209;28;20232;-73
2021/10/07 01:50:06;;;;;;;39.27;26.33;;;13.30;99.90;;;;;;4976541;28;20586;-73
2021/10/07 01:52:32;;;;;;;37.63;24.73;;;13.30;99.90;;;;;;4976481;28;20455;-73
2021/10/07 01:54:57;;;;;;;36.17;24.70;;;13.30;99.90;;;;;;4975872;28;20412;-73
2021/10/07 01:57:23;;;;;;;37.30;26.80;;;13.30;99.90;;;;;;4976600;28;20169;-73
2021/10/07 01:59:48;;;;;;;41.57;26.40;;;13.30;99.90;;;;;;4976667;28;20174;-73
2021/10/07 02:02:14;;;;;;;37.97;26.13;;;13.20;99.90;;;;;;4975045;28;20183;-73
2021/10/07 02:04:40;;;;;;;40.03;25.60;;;13.20;99.90;;;;;;4975623;28;20213;-73
2021/10/07 02:07:05;;;;;;;41.20;26.57;;;13.10;99.90;;;;;;4979314;28;20177;-73
2021/10/07 02:09:31;;;;;;;38.27;26.67;;;13.10;99.90;;;;;;4978769;28;20188;-73
2021/10/07 02:11:56;;;;;;;39.87;25.20;;;13.10;99.90;;;;;;4976041;28;20199;-73
2021/10/07 02:14:23;;;;;;;37.80;25.93;;;13.10;99.90;;;;;;4975812;28;20645;-73
2021/10/07 02:16:49;;;;;;;39.27;25.23;;;13.20;99.90;;;;;;4975709;28;20208;-73
2021/10/07 02:19:15;;;;;;;41.00;26.90;;;13.10;99.90;;;;;;4976407;28;20424;-73
2021/10/07 02:21:40;;;;;;;41.97;27.73;;;13.10;99.90;;;;;;4969449;28;20209;-73
2021/10/07 02:24:06;;;;;;;41.17;25.13;;;13.10;99.90;;;;;;4964637;28;20209;-73
2021/10/07 02:26:31;;;;;;;41.13;26.63;;;13.00;99.90;;;;;;4956486;29;20283;-73
2021/10/07 02:28:57;;;;;;;38.13;26.87;;;12.90;99.90;;;;;;4956638;29;20632;-73
2021/10/07 02:31:22;;;;;;;38.93;25.87;;;12.90;99.90;;;;;;4956637;29;20173;-73
2021/10/07 02:33:49;;;;;;;38.73;24.67;;;12.90;99.90;;;;;;4955670;29;20170;-73
2021/10/07 02:36:15;;;;;;;39.83;23.98;;;12.90;99.90;;;;;;4957685;28;20417;-73
2021/10/07 02:38:41;;;;;;;42.33;26.90;;;12.80;99.90;;;;;;4975334;28;20236;-73
2021/10/07 02:41:06;;;;;;;42.37;25.63;;;12.70;99.90;;;;;;4975387;28;20412;-73
2021/10/07 02:43:32;;;;;;;36.90;23.80;;;12.60;99.90;;;;;;4974607;28;20610;-73
2021/10/07 02:45:57;;;;;;;36.37;22.47;;;12.60;99.90;;;;;;4975005;28;20621;-73
2021/10/07 02:48:23;;;;;;;35.67;23.77;;;12.60;99.90;;;;;;4975018;28;20570;-73
2021/10/07 02:50:48;;;;;;;34.10;22.47;;;12.60;99.90;;;;;;4975370;28;20627;-73
2021/10/07 02:53:14;;;;;;;36.77;23.23;;;12.60;99.90;;;;;;4975222;28;20582;-73
2021/10/07 02:55:39;;;;;;;32.60;22.93;;;12.70;99.90;;;;;;4974538;28;20197;-73
2021/10/07 02:58:05;;;;;;;34.33;23.23;;;12.70;99.90;;;;;;4974885;28;20181;-73
2021/10/07 03:00:30;;;;;;;31.60;22.43;;;12.80;99.90;;;;;;4975228;28;20240;-73
2021/10/07 03:02:56;;;;;;;35.83;21.97;;;12.80;99.90;;;;;;4974792;28;20173;-73
2021/10/07 03:05:22;;;;;;;33.40;22.87;;;12.80;99.90;;;;;;4973089;28;20210;-73
2021/10/07 03:07:47;;;;;;;35.73;22.20;;;12.90;99.90;;;;;;4974778;28;20173;-73
2021/10/07 03:10:13;;;;;;;34.37;22.73;;;12.80;99.90;;;;;;4974299;28;20161;-73
2021/10/07 03:12:38;;;;;;;40.43;23.93;;;12.80;99.90;;;;;;4973457;28;20204;-73
2021/10/07 03:15:05;;;;;;;34.17;22.80;;;12.70;99.90;;;;;;4974032;28;20196;-73
2021/10/07 03:17:31;;;;;;;35.27;21.90;;;12.70;99.90;;;;;;4974722;28;20296;-73
2021/10/07 03:19:56;;;;;;;37.10;23.90;;;12.50;99.90;;;;;;4974759;28;20535;-73
2021/10/07 03:22:22;;;;;;;35.83;23.00;;;12.50;99.90;;;;;;4974871;28;20177;-73
2021/10/07 03:24:47;;;;;;;33.97;22.33;;;12.50;99.90;;;;;;4974102;28;20201;-73
2021/10/07 03:27:13;;;;;;;39.97;23.60;;;12.50;99.90;;;;;;4975121;28;20685;-73
2021/10/07 03:29:38;;;;;;;34.07;21.90;;;12.50;99.90;;;;;;4974444;28;20169;-73
2021/10/07 03:32:04;;;;;;;36.43;22.90;;;12.60;99.90;;;;;;4973002;28;20520;-73
2021/10/07 03:34:30;;;;;;;35.37;22.17;;;12.60;99.90;;;;;;4968289;28;20715;-73
2021/10/07 03:36:56;;;;;;;36.40;22.47;;;12.60;99.90;;;;;;4974615;28;20518;-73
2021/10/07 03:39:21;;;;;;;33.73;21.23;;;12.50;99.90;;;;;;4974619;28;20235;-73
2021/10/07 03:41:47;;;;;;;43.80;24.43;;;12.60;99.90;;;;;;4974479;28;20556;-73
2021/10/07 03:44:12;;;;;;;37.90;23.70;;;12.60;99.90;;;;;;4973053;28;20737;-73
2021/10/07 03:46:38;;;;;;;37.63;22.37;;;12.60;99.90;;;;;;4974535;28;20205;-73
2021/10/07 03:49:03;;;;;;;36.60;22.93;;;12.60;99.90;;;;;;4974670;28;20173;-73
2021/10/07 03:51:29;;;;;;;37.07;22.70;;;12.60;99.90;;;;;;4974405;28;20173;-73
2021/10/07 03:53:54;;;;;;;36.77;23.67;;;12.50;99.90;;;;;;4975470;28;20173;-73
2021/10/07 03:56:20;;;;;;;34.73;23.10;;;12.60;99.90;;;;;;4974686;28;20650;-73
2021/10/07 03:58:45;;;;;;;32.97;22.23;;;12.50;99.90;;;;;;4975753;28;20149;-73
2021/10/07 04:01:11;;;;;;;38.43;23.53;;;12.60;99.90;;;;;;4974378;28;20208;-73
2021/10/07 04:03:37;;;;;;;36.20;24.07;;;12.60;99.90;;;;;;4972485;28;20638;-73
2021/10/07 04:06:02;;;;;;;36.13;24.90;;;12.70;99.90;;;;;;4974066;28;20620;-73
2021/10/07 04:08:28;;;;;;;38.10;23.80;;;12.70;99.90;;;;;;4974400;28;20204;-73
2021/10/07 04:10:53;;;;;;;34.23;21.80;;;12.60;99.90;;;;;;4974254;28;20295;-73
2021/10/07 04:13:21;;;;;;;35.10;22.43;;;12.50;99.90;;;;;;4962875;28;20239;-73
2021/10/07 04:15:48;;;;;;;35.73;22.17;;;12.50;99.90;;;;;;4971857;28;20296;-74
2021/10/07 04:18:17;;;;;;;37.40;22.80;;;12.50;99.90;;;;;;4970695;28;20559;-73
2021/10/07 04:20:44;;;;;;;39.47;23.47;;;12.50;99.90;;;;;;4972142;28;20515;-70
2021/10/07 04:23:14;;;;;;;37.90;23.90;;;12.50;99.90;;;;;;4970766;28;20470;-74
2021/10/07 04:25:40;;;;;;;42.40;23.43;;;12.50;99.90;;;;;;4971429;28;21035;-73
2021/10/07 04:28:06;;;;;;;43.47;24.37;;;12.50;99.90;;;;;;4970355;28;20788;-73
2021/10/07 04:30:34;;;;;;;36.10;22.00;;;12.60;99.90;;;;;;4969984;28;20455;-73
2021/10/07 04:33:01;;;;;;;41.60;24.03;;;12.60;99.90;;;;;;4964954;28;20459;-74
2021/10/07 04:35:26;;;;;;;45.90;23.30;;;12.70;99.90;;;;;;4956526;28;20499;-73
2021/10/07 04:37:52;;;;;;;35.90;22.63;;;12.60;99.90;;;;;;4956668;28;20581;-74
2021/10/07 04:40:17;;;;;;;40.47;23.70;;;12.70;99.90;;;;;;4973161;28;20280;-73
2021/10/07 04:42:43;;;;;;;34.07;21.50;;;12.70;99.90;;;;;;4974562;28;20200;-73
2021/10/07 04:45:08;;;;;;;36.27;22.07;;;12.70;99.90;;;;;;4974570;28;20577;-73
2021/10/07 04:47:34;;;;;;;38.43;22.87;;;12.70;99.90;;;;;;4966124;28;20220;-74
2021/10/07 04:49:59;;;;;;;38.97;23.40;;;12.70;99.90;;;;;;4966062;28;20215;-73
2021/10/07 04:52:25;;;;;;;35.43;22.37;;;12.70;99.90;;;;;;4965475;28;20200;-73
2021/10/07 04:54:51;;;;;;;36.77;23.47;;;12.70;99.90;;;;;;4960431;28;20224;-74
2021/10/07 04:57:16;;;;;;;40.83;23.57;;;12.70;99.90;;;;;;4965644;28;20228;-71
2021/10/07 04:59:42;;;;;;;40.07;23.67;;;12.70;99.90;;;;;;4977122;28;20718;-72
2021/10/07 05:02:07;;;;;;;38.60;24.10;;;12.70;99.90;;;;;;4966152;28;20271;-72
2021/10/07 05:04:33;;;;;;;36.57;25.17;;;12.70;99.90;;;;;;4959744;28;20284;-73
2021/10/07 05:06:58;;;;;;;39.93;24.40;;;12.80;99.90;;;;;;4963851;28;20218;-73
2021/10/07 05:09:24;;;;;;;42.27;26.70;;;12.60;99.90;;;;;;4970300;28;20212;-73
2021/10/07 05:11:49;;;;;;;44.67;24.37;;;12.50;99.90;;;;;;4964859;28;20201;-73
2021/10/07 05:14:15;;;;;;;40.37;25.87;;;12.40;99.90;;;;;;4960106;28;20227;-73
2021/10/07 05:16:40;;;;;;;37.07;24.33;;;12.30;99.90;;;;;;4966728;28;20228;-74
2021/10/07 05:19:06;;;;;;;42.63;25.60;;;12.30;99.90;;;;;;4968390;28;20245;-73
2021/10/07 05:21:32;;;;;;;40.37;24.93;;;12.30;99.90;;;;;;4964304;28;20217;-72
2021/10/07 05:23:58;;;;;;;42.40;25.07;;;12.20;99.90;;;;;;4978190;28;20216;-73
2021/10/07 05:26:23;;;;;;;43.57;26.23;;;12.20;99.90;;;;;;4961702;28;20213;-73
2021/10/07 05:28:49;;;;;;;41.80;26.03;;;12.20;99.90;;;;;;4967725;28;20619;-73
2021/10/07 05:31:14;;;;;;;40.33;24.67;;;12.10;99.90;;;;;;4956178;28;20209;-73
2021/10/07 05:33:40;;;;;;;40.23;25.07;;;12.10;99.90;;;;;;4963574;28;20220;-73
2021/10/07 05:36:06;;;;;;;48.60;26.50;;;12.10;99.90;;;;;;4969872;28;20239;-73
2021/10/07 05:38:31;;;;;;;43.63;24.67;;;12.00;99.90;;;;;;4972617;28;20670;-72
2021/10/07 05:40:59;;;;;;;39.57;23.27;;;12.10;99.90;;;;;;4971720;28;20224;-73
2021/10/07 05:43:25;;;;;;;35.67;23.33;;;12.10;99.90;;;;;;4975780;28;20235;-73
2021/10/07 05:45:51;;;;;;;34.30;20.97;;;12.00;99.90;;;;;;4974680;28;20566;-73
2021/10/07 05:48:16;;;;;;;36.10;23.13;;;12.00;99.90;;;;;;4975934;28;20205;-73
2021/10/07 05:50:42;;;;;;;34.17;23.03;;;12.00;99.90;;;;;;4966246;28;20217;-73
2021/10/07 05:53:07;;;;;;;38.13;22.20;;;12.10;99.90;;;;;;4964321;28;20227;-73
2021/10/07 05:55:33;;;;;;;33.30;20.73;;;12.10;99.90;;;;;;4970474;28;20217;-74
2021/10/07 05:57:58;;;;;;;36.60;22.80;;;12.10;99.90;;;;;;4973564;28;20213;-74
2021/10/07 06:00:24;;;;;;;33.30;21.53;;;12.20;99.90;;;;;;4975806;28;20737;-72
2021/10/07 06:02:50;;;;;;;32.57;20.67;;;12.20;99.90;;;;;;4970335;28;20215;-73
2021/10/07 06:05:15;;;;;;;30.53;20.43;;;12.30;99.90;;;;;;4964768;28;20633;-74
2021/10/07 06:07:41;;;;;;;33.00;21.20;;;12.40;99.90;;;;;;4967387;28;20237;-74
2021/10/07 06:10:07;;;;;;;26.37;18.13;;;12.40;99.90;;;;;;4966527;28;20243;-73
2021/10/07 06:12:36;;;;;;;31.90;19.63;;;12.50;99.90;;;;;;4985242;28;20208;-73
2021/10/07 06:15:02;;;;;;;31.40;19.50;;;12.40;99.90;;;;;;4980783;28;20207;-73
2021/10/07 06:17:27;;;;;;;31.43;21.17;;;12.40;99.90;;;;;;4975917;28;20537;-73
2021/10/07 06:19:57;;;;;;;29.13;19.13;;;12.30;99.90;;;;;;4975442;28;20177;-73
2021/10/07 06:22:22;;;;;;;34.13;21.97;;;12.20;99.90;;;;;;4976487;28;20189;-73
2021/10/07 06:24:48;;;;;;;32.40;19.77;;;12.20;99.90;;;;;;4975215;28;20467;-73
2021/10/07 06:27:13;;;;;;;29.63;19.80;;;12.10;99.90;;;;;;4975817;28;20195;-73
2021/10/07 06:29:39;;;;;;;33.00;19.97;;;12.20;99.90;;;;;;4974486;28;20259;-73
2021/10/07 06:32:05;;;;;;;32.30;19.03;;;12.10;99.90;;;;;;4975349;28;20184;-73
2021/10/07 06:34:30;;;;;;;31.50;19.47;;;12.10;99.90;;;;;;4974876;28;20199;-73
2021/10/07 06:36:56;;;;;;;30.63;18.10;;;12.10;99.90;;;;;;4975297;28;20452;-74
2021/10/07 06:39:22;;;;;;;31.97;20.17;;;12.10;99.90;;;;;;4975762;28;20180;-73
2021/10/07 06:41:48;;;;;;;34.90;19.83;;;12.20;99.90;;;;;;4976043;28;20169;-74
2021/10/07 06:44:14;;;;;;;33.30;20.27;;;12.20;99.90;;;;;;4968044;28;20204;-74
2021/10/07 06:46:39;;;;;;;32.30;20.33;;;12.20;99.90;;;;;;4975155;28;20439;-74
2021/10/07 06:49:05;;;;;;;30.50;18.73;;;12.20;99.90;;;;;;4975097;28;20180;-72
2021/10/07 06:51:31;;;;;;;32.57;20.17;;;12.20;99.90;;;;;;4975800;28;20173;-74
2021/10/07 06:54:00;;;;;;;29.67;19.53;;;12.30;99.90;;;;;;4977001;28;20181;-74
2021/10/07 06:56:26;;;;;;;32.43;18.60;;;12.40;99.90;;;;;;4974680;28;20205;-74
2021/10/07 06:58:54;;;;;;;33.90;18.83;;;12.40;99.90;;;;;;4940643;28;20452;-72
2021/10/07 07:01:24;;;;;;;31.07;20.20;;;12.50;99.90;;;;;;4959188;28;20525;-74
2021/10/07 07:03:54;;;;;;;33.17;20.60;;;12.50;99.90;;;;;;4966210;28;20936;-75
2021/10/07 07:06:21;;;;;;;31.63;19.60;;;12.50;99.90;;;;;;4969059;28;20475;-73
2021/10/07 07:08:46;;;;;;;37.13;23.23;;;12.50;99.90;;;;;;4965744;28;20457;-73
2021/10/07 07:11:12;;;;;;;28.80;18.60;;;12.50;99.90;;;;;;4963496;28;20480;-74
2021/10/07 07:13:38;;;;;;;33.20;18.40;;;12.50;99.90;;;;;;4960266;28;20661;-73
2021/10/07 07:16:04;;;;;;;33.27;19.93;;;12.40;99.90;;;;;;4956282;28;20241;-73
2021/10/07 07:18:29;;;;;;;37.93;20.80;;;12.40;99.90;;;;;;4957027;28;20494;-74
2021/10/07 07:20:55;;;;;;;35.50;20.80;;;12.50;99.90;;;;;;4958241;28;20240;-73
2021/10/07 07:23:20;;;;;;;34.63;18.80;;;12.50;99.90;;;;;;4958423;28;20199;-73
2021/10/07 07:25:46;;;;;;;30.67;20.30;;;12.50;99.90;;;;;;4956544;28;20240;-73
2021/10/07 07:28:12;;;;;;;30.30;18.87;;;12.50;99.90;;;;;;4968444;28;20276;-73
2021/10/07 07:30:38;;;;;;;31.30;18.80;;;12.60;99.90;;;;;;4970227;28;20216;-74
2021/10/07 07:33:04;;;;;;;26.47;17.57;;;12.60;99.90;;;;;;4969572;28;20276;-73
2021/10/07 07:35:31;;;;;;;32.37;19.00;;;12.50;99.90;;;;;;4969310;28;20511;-73
2021/10/07 07:38:03;;;;;;;34.23;21.00;;;12.60;99.90;;;;;;4969819;28;20176;-73
2021/10/07 07:40:30;;;;;;;32.83;21.47;;;12.70;99.90;;;;;;4969268;28;20479;-73
2021/10/07 07:42:56;;;;;;;32.47;20.97;;;12.80;99.90;;;;;;4969301;28;20412;-73
2021/10/07 07:45:22;;;;;;;31.80;19.77;;;12.90;99.90;;;;;;4969094;28;20471;-73
2021/10/07 07:47:48;;;;;;;30.33;19.83;;;13.00;99.90;;;;;;4968074;28;20984;-73
2021/10/07 07:50:14;;;;;;;33.07;18.60;;;13.10;99.90;;;;;;4970107;28;20907;-73
2021/10/07 07:52:40;;;;;;;35.13;18.23;;;13.00;99.90;;;;;;4970800;28;20655;-73
2021/10/07 07:55:06;;;;;;;26.50;17.50;;;13.20;99.90;;;;;;4969504;28;20681;-73
2021/10/07 07:57:33;;;;;;;26.27;19.40;;;13.30;99.90;;;;;;4969732;28;20438;-74
2021/10/07 07:59:58;;;;;;;23.03;16.20;;;13.30;99.90;;;;;;4964723;28;20455;-74
2021/10/07 08:02:24;;;;;;;20.30;15.40;;;13.40;99.90;;;;;;4960864;28;20460;-74
2021/10/07 08:04:51;;;;;;;20.93;14.90;;;13.40;99.90;;;;;;4977725;28;20623;-72
2021/10/07 08:07:17;;;;;;;23.83;15.20;;;13.50;99.90;;;;;;4986538;28;20459;-73
2021/10/07 08:09:46;;;;;;;23.70;16.70;;;13.50;99.90;;;;;;4976591;28;20427;-74
2021/10/07 08:12:13;;;;;;;21.77;15.03;;;13.60;99.90;;;;;;4979118;28;20482;-73
2021/10/07 08:14:43;;;;;;;20.47;14.40;;;13.50;99.90;;;;;;4986568;28;20432;-73
2021/10/07 08:17:08;;;;;;;20.43;15.00;;;13.40;99.90;;;;;;4978811;28;20444;-73
2021/10/07 08:19:35;;;;;;;22.53;15.67;;;13.50;99.90;;;;;;4975115;28;20890;-73
2021/10/07 08:22:00;;;;;;;23.20;15.33;;;13.60;99.90;;;;;;4976478;28;20184;-73
2021/10/07 08:24:26;;;;;;;24.00;14.30;;;13.60;99.90;;;;;;4964169;28;20473;-74
2021/10/07 08:26:52;;;;;;;24.63;17.23;;;13.70;99.90;;;;;;4966372;28;20296;-74
2021/10/07 08:29:18;;;;;;;20.25;16.20;;;13.80;99.90;;;;;;4959289;28;20453;-73
2021/10/07 08:31:43;;;;;;;23.07;15.30;;;13.90;99.90;;;;;;4970034;28;20219;-74
2021/10/07 08:34:09;;;;;;;24.87;16.57;;;14.00;99.90;;;;;;4962688;28;20240;-72
2021/10/07 08:36:42;;;;;;;18.33;14.10;;;14.00;99.90;;;;;;4969448;28;20291;-74
2021/10/07 08:39:08;;;;;;;23.27;15.37;;;14.00;99.90;;;;;;4983136;28;20327;-73
2021/10/07 08:41:33;;;;;;;21.53;15.10;;;14.10;99.90;;;;;;4973071;28;20483;-73
2021/10/07 08:44:01;;;;;;;20.17;14.73;;;14.20;99.90;;;;;;4971650;28;20511;-73
2021/10/07 08:46:26;;;;;;;21.20;14.37;;;14.20;99.90;;;;;;4971914;28;20558;-73
2021/10/07 08:48:52;;;;;;;18.87;14.30;;;14.20;99.90;;;;;;4970625;28;20436;-73
2021/10/07 08:51:18;;;;;;;17.60;13.20;;;14.20;99.90;;;;;;4970015;28;20244;-74
2021/10/07 08:53:44;;;;;;;16.20;12.40;;;14.30;99.90;;;;;;4962120;28;20220;-74
2021/10/07 08:56:10;;;;;;;16.50;12.30;;;14.30;99.90;;;;;;4951030;28;20449;-74
2021/10/07 08:58:35;;;;;;;17.70;11.30;;;14.40;99.90;;;;;;4951908;28;20209;-73
2021/10/07 09:01:04;;;;;;;16.07;11.00;;;14.50;99.90;;;;;;4962398;28;20217;-73
2021/10/07 09:03:29;;;;;;;15.47;11.23;;;14.50;99.90;;;;;;4969272;28;20236;-73
2021/10/07 09:06:15;;;;;;;13.63;10.67;;;14.60;99.90;;;;;;4970306;28;20934;-73
2021/10/07 09:08:48;;;;;;;14.30;11.03;;;14.60;99.90;;;;;;4971279;28;20196;-73
2021/10/07 09:11:28;;;;;;;15.07;11.57;;;14.60;99.90;;;;;;4969490;28;20939;-73
2021/10/07 09:14:02;;;;;;;17.00;12.03;;;14.70;99.90;;;;;;4965322;28;20467;-73
2021/10/07 09:16:48;;;;;;;16.07;12.00;;;14.80;99.90;;;;;;4950239;28;20456;-74
2021/10/07 09:19:25;;;;;;;15.73;11.63;;;14.70;99.90;;;;;;4948718;28;20570;-73
2021/10/07 09:21:57;;;;;;;14.43;11.63;;;14.70;99.90;;;;;;4951093;28;20440;-73
2021/10/07 09:24:28;;;;;;;17.20;11.40;;;14.60;99.90;;;;;;4952631;28;20472;-73
2021/10/07 09:26:58;;;;;;;14.90;10.43;;;14.60;99.90;;;;;;4969471;28;20449;-73
2021/10/07 09:29:38;;;;;;;13.57;10.00;;;14.70;99.90;;;;;;4969644;28;20440;-73
2021/10/07 09:32:06;;;;;;;15.67;11.03;;;14.80;99.90;;;;;;4970585;28;21277;-73
2021/10/07 09:34:43;;;;;;;14.00;10.70;;;14.90;99.90;;;;;;4968915;28;20440;-74
2021/10/07 09:37:24;;;;;;;14.07;10.57;;;14.80;99.90;;;;;;4967967;28;20483;-73
2021/10/07 09:39:56;;;;;;;13.63;10.50;;;14.70;99.90;;;;;;4969934;28;20514;-74
2021/10/07 09:42:32;;;;;;;14.23;9.77;;;14.70;99.90;;;;;;4969202;28;20436;-73
2021/10/07 09:45:08;;;;;;;13.20;9.50;;;14.70;99.90;;;;;;4968448;28;20493;-73
2021/10/07 09:47:38;;;;;;;12.00;10.57;;;14.80;99.90;;;;;;4969049;28;20975;-73
2021/10/07 09:50:11;;;;;;;11.60;9.10;;;14.80;99.90;;;;;;4969801;28;20474;-73
2021/10/07 09:52:38;;;;;;;15.87;10.23;;;14.80;99.90;;;;;;4967327;28;20540;-73
2021/10/07 09:55:20;;;;;;;12.10;9.37;;;14.50;99.90;;;;;;4962451;28;20480;-73
2021/10/07 09:57:56;;;;;;;12.43;9.63;;;14.40;99.90;;;;;;4968778;28;20432;-73
2021/10/07 10:00:26;;;;;;;11.10;9.43;;;14.30;99.90;;;;;;4968881;28;20448;-73
2021/10/07 10:02:54;;;;;;;13.10;9.33;;;14.30;99.90;;;;;;4964117;28;21033;-73
2021/10/07 10:05:19;;;;;;;13.20;11.00;;;14.50;99.90;;;;;;4967430;28;20493;-73
2021/10/07 10:07:45;;;;;;;15.17;10.37;;;14.60;99.90;;;;;;4969322;28;20452;-73
2021/10/07 10:10:15;;;;;;;13.63;11.00;;;14.60;99.90;;;;;;4960978;28;20654;-74
2021/10/07 10:12:41;;;;;;;15.80;10.67;;;14.60;99.90;;;;;;4957931;28;20460;-74
2021/10/07 10:15:09;;;;;;;14.73;11.00;;;14.60;99.90;;;;;;4966654;28;20463;-75
2021/10/07 10:17:36;;;;;;;12.27;10.00;;;14.60;99.90;;;;;;4951154;28;20489;-73
2021/10/07 10:20:09;;;;;;;12.80;11.10;;;14.70;99.90;;;;;;4957742;28;20463;-73
2021/10/07 10:22:35;;;;;;;14.70;10.40;;;14.70;99.90;;;;;;4964751;28;20460;-73
2021/10/07 10:25:02;;;;;;;13.20;9.97;;;14.80;99.90;;;;;;4968749;28;20482;-75
2021/10/07 10:27:48;;;;;;;13.00;9.57;;;14.80;99.90;;;;;;4968902;28;20474;-73
2021/10/07 10:30:25;;;;;;;11.10;9.07;;;14.70;99.90;;;;;;4969565;28;20498;-74
2021/10/07 10:32:51;;;;;;;15.00;10.27;;;14.70;99.90;;;;;;4968737;28;20503;-73
2021/10/07 10:35:32;;;;;;;10.67;8.97;;;14.70;99.90;;;;;;4966359;28;20452;-73
2021/10/07 10:37:58;;;;;;;11.80;9.83;;;14.80;99.90;;;;;;4966442;28;20483;-73
2021/10/07 10:40:24;;;;;;;11.70;10.50;;;14.80;99.90;;;;;;4967109;28;20452;-73
2021/10/07 10:43:18;;;;;;;11.27;8.63;;;15.00;99.90;;;;;;4968982;28;20467;-73
2021/10/07 10:45:50;;;;;;;10.63;9.30;;;15.10;99.90;;;;;;4967043;28;20484;-74
2021/10/07 10:48:41;;;;;;;10.20;9.03;;;15.20;99.90;;;;;;4966824;28;20759;-74
2021/10/07 10:51:16;;;;;;;11.43;8.93;;;15.30;99.90;;;;;;5040101;27;20593;-74
2021/10/07 10:53:47;;;;;;;12.90;9.80;;;15.40;99.90;;;;;;5040349;27;20453;-74
2021/10/07 10:56:14;;;;;;;10.47;9.37;;;15.50;99.90;;;;;;5037476;27;21168;-73
2021/10/07 10:58:40;;;;;;;10.37;9.27;;;15.50;99.90;;;;;;5039593;27;20444;-73
2021/10/07 11:01:14;;;;;;;11.63;9.57;;;15.50;99.90;;;;;;5039806;27;20428;-74
2021/10/07 11:03:40;;;;;;;11.83;9.90;;;15.40;99.90;;;;;;5037434;27;20464;-74
2021/10/07 11:06:08;;;;;;;12.53;9.40;;;15.30;99.90;;;;;;5039744;28;20432;-74
2021/10/07 11:08:40;;;;;;;12.80;9.80;;;15.40;99.90;;;;;;5038383;27;20467;-74
2021/10/07 11:11:07;;;;;;;11.73;9.33;;;15.50;99.90;;;;;;5040420;27;20471;-73
2021/10/07 11:13:43;;;;;;;11.40;10.20;;;15.60;99.90;;;;;;5037213;27;20472;-73
2021/10/07 11:16:15;;;;;;;10.73;9.30;;;15.60;99.90;;;;;;5019397;28;20464;-74
2021/10/07 11:18:42;;;;;;;11.20;9.10;;;15.80;99.90;;;;;;5021790;27;20460;-72
2021/10/07 11:21:16;;;;;;;11.30;9.50;;;15.90;99.90;;;;;;5035574;28;20464;-73
2021/10/07 11:23:46;;;;;;;10.73;9.00;;;15.90;99.90;;;;;;5029222;27;20520;-73
2021/10/07 11:26:12;;;;;;;9.53;8.53;;;16.00;99.90;;;;;;5022359;28;20460;-74
2021/10/07 11:28:43;;;;;;;11.00;8.90;;;16.10;99.90;;;;;;5038761;27;20467;-73
2021/10/07 11:31:14;;;;;;;9.73;8.10;;;16.20;99.90;;;;;;5064842;27;20300;-73
2021/10/07 11:33:46;;;;;;;9.40;8.40;;;16.20;99.90;;;;;;5029719;27;20498;-73
2021/10/07 11:36:15;;;;;;;9.87;7.87;;;16.20;99.90;;;;;;5028612;27;20445;-74
2021/10/07 11:38:44;;;;;;;11.43;8.93;;;16.10;99.90;;;;;;5020774;27;20558;-73
2021/10/07 11:41:11;;;;;;;16.77;8.90;;;16.10;99.90;;;;;;5020180;28;21024;-73
2021/10/07 11:43:37;;;;;;;10.03;8.17;;;16.20;99.90;;;;;;5020610;27;20469;-74
2021/10/07 11:46:10;;;;;;;9.70;8.30;;;16.30;99.90;;;;;;5019356;28;20477;-72
2021/10/07 11:48:35;;;;;;;13.57;8.60;;;16.40;99.90;;;;;;5019564;27;20456;-73
2021/10/07 11:51:04;;;;;;;11.00;8.63;;;16.30;99.90;;;;;;5018958;28;20481;-74
2021/10/07 11:53:33;;;;;;;10.03;8.40;;;16.30;99.90;;;;;;5021169;27;20226;-74
2021/10/07 11:56:01;;;;;;;10.20;8.17;;;16.30;99.90;;;;;;5041766;27;20834;-74
2021/10/07 11:58:29;;;;;;;9.33;8.20;;;16.30;99.90;;;;;;5040051;27;20441;-74
2021/10/07 12:00:56;;;;;;;10.03;9.00;;;16.30;99.90;;;;;;5037445;27;20459;-74
2021/10/07 12:03:29;;;;;;;9.20;8.30;;;16.40;99.90;;;;;;5025797;27;20484;-74
2021/10/07 12:06:02;;;;;;;15.90;9.60;;;16.40;99.90;;;;;;5026121;28;20480;-74
2021/10/07 12:08:48;;;;;;;13.10;9.47;;;16.40;99.90;;;;;;5025075;27;20453;-74
2021/10/07 12:11:23;;;;;;;9.27;8.27;;;16.60;99.90;;;;;;5024860;27;20544;-74
2021/10/07 12:13:54;;;;;;;9.00;8.10;;;16.70;99.90;;;;;;5020156;27;20457;-74
2021/10/07 12:16:32;;;;;;;9.77;8.43;;;16.80;99.90;;;;;;5006174;28;20920;-75
2021/10/07 12:19:03;;;;;;;9.47;8.17;;;16.90;99.90;;;;;;5014204;27;20460;-74
2021/10/07 12:21:34;;;;;;;11.97;9.10;;;16.90;99.90;;;;;;5025584;28;21393;-74
2021/10/07 12:24:11;;;;;;;10.73;8.23;;;16.90;99.90;;;;;;5026621;27;20450;-74
2021/10/07 12:27:00;;;;;;;10.13;9.13;;;17.00;99.90;;;;;;5014458;28;20539;-74
2021/10/07 12:29:31;;;;;;;8.97;7.43;;;17.00;99.90;;;;;;5005399;27;20477;-74
2021/10/07 12:32:02;;;;;;;11.10;7.93;;;17.10;99.90;;;;;;5004528;28;20473;-74
2021/10/07 12:34:29;;;;;;;9.40;8.40;;;17.00;99.90;;;;;;5004046;28;20454;-72
2021/10/07 12:36:57;;;;;;;10.40;9.00;;;17.10;99.90;;;;;;5006972;28;20457;-73
2021/10/07 12:39:32;;;;;;;9.03;8.10;;;17.10;99.90;;;;;;5005304;27;20454;-74